createdAt,value
2023-05-09T00:00:56.528Z,21.53
2023-05-09T00:03:24.558Z,20.00
2023-05-09T00:05:52.479Z,20.43
2023-05-09T00:08:20.179Z,19.07
2023-05-09T00:10:49.232Z,19.33
2023-05-09T00:13:17.690Z,19.03
2023-05-09T00:15:46.638Z,18.77
2023-05-09T00:18:15.184Z,19.40
2023-05-09T00:20:44.362Z,17.73
2023-05-09T00:23:12.075Z,19.40
2023-05-09T00:25:39.815Z,16.63
2023-05-09T00:28:08.997Z,17.80
2023-05-09T00:30:36.628Z,17.60
2023-05-09T00:33:04.387Z,17.57
2023-05-09T00:35:32.471Z,17.50
2023-05-09T00:38:00.240Z,17.03
2023-05-09T00:40:28.356Z,17.43
2023-05-09T00:42:58.305Z,17.43
2023-05-09T00:45:27.580Z,17.23
2023-05-09T00:47:55.317Z,17.07
2023-05-09T00:50:23.080Z,18.00
2023-05-09T00:52:51.492Z,17.13
2023-05-09T00:55:19.629Z,17.57
2023-05-09T00:57:47.699Z,16.03
2023-05-09T01:00:16.717Z,17.67
2023-05-09T01:02:47.702Z,17.47
2023-05-09T01:05:16.124Z,16.13
2023-05-09T01:07:47.483Z,17.13
2023-05-09T01:10:24.167Z,17.23
2023-05-09T01:12:56.279Z,16.67
2023-05-09T01:15:29.063Z,16.47
2023-05-09T01:18:01.108Z,16.40
2023-05-09T01:20:33.691Z,16.37
2023-05-09T01:23:17.090Z,17.17
2023-05-09T01:25:56.251Z,16.70
2023-05-09T01:28:54.697Z,16.87
2023-05-09T01:31:24.650Z,17.77
2023-05-09T01:33:56.042Z,18.47
2023-05-09T01:36:24.588Z,17.43
2023-05-09T01:38:53.154Z,17.50
2023-05-09T01:41:23.843Z,18.73
2023-05-09T01:43:51.986Z,18.37
2023-05-09T01:46:20.600Z,19.17
2023-05-09T01:48:51.150Z,18.23
2023-05-09T01:51:20.227Z,18.03
2023-05-09T01:53:49.577Z,20.10
2023-05-09T01:56:17.812Z,19.17
2023-05-09T01:58:48.208Z,20.63
2023-05-09T02:01:16.278Z,20.87
2023-05-09T02:03:44.643Z,21.03
2023-05-09T02:06:15.137Z,20.90
2023-05-09T02:08:43.680Z,20.97
2023-05-09T02:11:11.365Z,21.63
2023-05-09T02:13:39.319Z,21.50
2023-05-09T02:16:07.950Z,22.37
2023-05-09T02:18:35.752Z,22.20
2023-05-09T02:21:04.045Z,21.37
2023-05-09T02:23:33.173Z,21.37
2023-05-09T02:26:00.968Z,21.33
2023-05-09T02:28:29.190Z,21.37
2023-05-09T02:30:58.673Z,21.43
2023-05-09T02:33:26.647Z,21.57
2023-05-09T02:35:54.897Z,20.23
2023-05-09T02:38:22.574Z,21.10
2023-05-09T02:40:52.555Z,22.30
2023-05-09T02:43:20.431Z,22.47
2023-05-09T02:45:48.147Z,22.57
2023-05-09T02:48:15.897Z,22.73
2023-05-09T02:50:44.355Z,22.43
2023-05-09T02:53:12.121Z,21.93
2023-05-09T02:55:39.846Z,22.17
2023-05-09T02:58:14.125Z,23.37
2023-05-09T03:00:43.257Z,22.97
2023-05-09T03:03:11.400Z,23.07
2023-05-09T03:05:39.269Z,23.80
2023-05-09T03:08:07.062Z,23.50
2023-05-09T03:10:35.298Z,22.10
2023-05-09T03:13:03.008Z,24.47
2023-05-09T03:15:32.116Z,23.87
2023-05-09T03:17:59.797Z,23.93
2023-05-09T03:20:27.729Z,23.87
2023-05-09T03:22:55.466Z,24.20
2023-05-09T03:25:23.353Z,26.07
2023-05-09T03:27:51.055Z,25.10
2023-05-09T03:30:19.129Z,26.00
2023-05-09T03:32:48.235Z,25.07
2023-05-09T03:35:16.287Z,24.77
2023-05-09T03:37:44.180Z,25.00
2023-05-09T03:40:12.675Z,24.90
2023-05-09T03:42:40.328Z,23.77
2023-05-09T03:45:09.154Z,25.73
2023-05-09T03:47:36.885Z,24.47
2023-05-09T03:50:07.095Z,24.60
2023-05-09T03:52:34.786Z,26.17
2023-05-09T03:55:02.724Z,26.23
2023-05-09T03:57:30.403Z,25.27
2023-05-09T03:59:58.138Z,25.70
2023-05-09T04:02:26.068Z,25.40
2023-05-09T04:04:53.897Z,24.43
2023-05-09T04:07:23.105Z,25.53
2023-05-09T04:09:50.772Z,26.27
2023-05-09T04:12:18.803Z,25.77
2023-05-09T04:14:48.904Z,26.20
2023-05-09T04:17:16.834Z,24.07
2023-05-09T04:19:44.557Z,25.53
2023-05-09T04:22:12.637Z,26.30
2023-05-09T04:24:42.126Z,26.43
2023-05-09T04:27:09.789Z,27.43
2023-05-09T04:29:38.371Z,26.03
2023-05-09T04:32:06.509Z,27.10
2023-05-09T04:34:34.307Z,25.93
2023-05-09T04:37:01.995Z,25.80
2023-05-09T04:39:30.429Z,25.97
2023-05-09T04:41:59.468Z,25.43
2023-05-09T04:44:27.569Z,27.30
2023-05-09T04:46:55.972Z,25.40
2023-05-09T04:49:23.626Z,26.27
2023-05-09T04:51:52.278Z,26.53
2023-05-09T04:54:19.926Z,26.93
2023-05-09T04:56:50.052Z,26.03
2023-05-09T04:59:19.739Z,26.27
2023-05-09T05:01:47.539Z,25.83
2023-05-09T05:04:15.328Z,27.20
2023-05-09T05:06:42.989Z,25.80
2023-05-09T05:09:11.120Z,27.17
2023-05-09T05:11:38.972Z,26.30
2023-05-09T05:14:07.979Z,24.97
2023-05-09T05:16:37.121Z,25.73
2023-05-09T05:19:05.167Z,25.70
2023-05-09T05:21:32.810Z,25.20
2023-05-09T05:24:00.493Z,24.27
2023-05-09T05:26:29.015Z,26.20
2023-05-09T05:28:57.199Z,25.03
2023-05-09T05:31:24.866Z,26.50
2023-05-09T05:33:53.933Z,26.47
2023-05-09T05:36:21.790Z,27.57
2023-05-09T05:38:49.440Z,26.13
2023-05-09T05:41:17.093Z,25.90
2023-05-09T05:43:44.802Z,26.40
2023-05-09T05:46:12.528Z,26.70
2023-05-09T05:48:40.239Z,26.77
2023-05-09T05:51:09.333Z,26.93
2023-05-09T05:53:37.263Z,27.47
2023-05-09T05:56:05.351Z,27.27
2023-05-09T05:58:32.989Z,26.07
2023-05-09T06:01:00.879Z,27.73
2023-05-09T06:03:28.638Z,28.77
2023-05-09T06:05:56.904Z,27.03
2023-05-09T06:08:26.043Z,27.60
2023-05-09T06:10:53.780Z,26.20
2023-05-09T06:13:21.508Z,25.97
2023-05-09T06:15:49.275Z,27.17
2023-05-09T06:18:16.931Z,26.57
2023-05-09T06:20:44.586Z,26.47
2023-05-09T06:23:12.284Z,27.53
2023-05-09T06:25:41.401Z,27.73
2023-05-09T06:28:09.101Z,26.23
2023-05-09T06:30:36.817Z,27.10
2023-05-09T06:33:04.526Z,26.53
2023-05-09T06:35:32.300Z,26.80
2023-05-09T06:37:59.994Z,26.17
2023-05-09T06:40:27.843Z,26.53
2023-05-09T06:42:57.126Z,26.50
2023-05-09T06:45:24.847Z,25.40
2023-05-09T06:47:52.571Z,25.73
2023-05-09T06:50:20.382Z,26.30
2023-05-09T06:52:48.357Z,24.87
2023-05-09T06:55:16.359Z,26.90
2023-05-09T06:57:44.252Z,25.60
2023-05-09T07:00:14.946Z,26.37
2023-05-09T07:02:43.223Z,25.87
2023-05-09T07:05:11.738Z,24.93
2023-05-09T07:07:39.413Z,27.20
2023-05-09T07:10:11.900Z,26.83
2023-05-09T07:12:40.333Z,27.13
2023-05-09T07:15:09.572Z,27.53
2023-05-09T07:17:38.690Z,27.97
2023-05-09T07:20:07.884Z,26.87
2023-05-09T07:22:37.374Z,28.60
2023-05-09T07:25:07.799Z,29.77
2023-05-09T07:27:35.518Z,29.57
2023-05-09T07:30:03.369Z,28.40
2023-05-09T07:32:31.133Z,29.57
2023-05-09T07:35:00.264Z,30.90
2023-05-09T07:37:27.947Z,28.40
2023-05-09T07:39:55.835Z,28.83
2023-05-09T07:42:23.561Z,28.57
2023-05-09T07:44:51.246Z,28.23
2023-05-09T07:47:18.950Z,29.30
2023-05-09T07:49:47.999Z,28.23
2023-05-09T07:52:17.942Z,29.17
2023-05-09T07:54:45.870Z,30.17
2023-05-09T07:57:13.640Z,30.27
2023-05-09T07:59:42.394Z,29.57
2023-05-09T08:02:10.228Z,30.27
2023-05-09T08:04:41.184Z,30.43
2023-05-09T08:07:09.670Z,30.87
2023-05-09T08:09:38.740Z,32.13
2023-05-09T08:12:07.029Z,31.70
2023-05-09T08:14:34.750Z,28.47
2023-05-09T08:17:02.443Z,29.93
2023-05-09T08:19:30.217Z,29.57
2023-05-09T08:21:57.908Z,29.23
2023-05-09T08:24:25.625Z,30.73
2023-05-09T08:26:54.820Z,30.53
2023-05-09T08:29:22.514Z,31.93
2023-05-09T08:31:51.230Z,32.30
2023-05-09T08:34:19.027Z,30.67
2023-05-09T08:36:47.008Z,30.50
2023-05-09T08:39:15.060Z,29.83
2023-05-09T08:41:43.408Z,31.27
2023-05-09T08:44:12.637Z,30.63
2023-05-09T08:46:44.209Z,29.23
2023-05-09T08:49:12.183Z,29.37
2023-05-09T08:51:40.238Z,29.33
2023-05-09T08:54:08.376Z,26.33
2023-05-09T08:56:36.432Z,27.80
2023-05-09T08:59:05.725Z,26.40
2023-05-09T09:01:36.442Z,25.70
2023-05-09T09:04:07.166Z,26.87
2023-05-09T09:06:35.529Z,27.67
2023-05-09T09:09:06.041Z,28.07
2023-05-09T09:11:34.763Z,28.00
2023-05-09T09:14:03.384Z,28.00
2023-05-09T09:16:31.879Z,28.57
2023-05-09T09:19:01.490Z,27.90
2023-05-09T09:21:29.214Z,26.67
2023-05-09T09:23:57.088Z,27.30
2023-05-09T09:26:25.014Z,28.60
2023-05-09T09:28:54.324Z,27.87
2023-05-09T09:31:23.414Z,27.87
2023-05-09T09:33:52.184Z,28.70
2023-05-09T09:36:29.178Z,28.53
2023-05-09T09:39:01.448Z,28.97
2023-05-09T09:41:33.726Z,28.63
2023-05-09T09:44:07.763Z,29.97
2023-05-09T09:46:53.684Z,32.37
2023-05-09T09:49:22.179Z,30.57
2023-05-09T09:51:56.061Z,31.40
2023-05-09T09:54:24.114Z,31.97
2023-05-09T09:56:54.293Z,30.37
2023-05-09T09:59:23.546Z,32.33
2023-05-09T10:01:56.204Z,33.43
2023-05-09T10:04:24.342Z,30.73
2023-05-09T10:06:58.145Z,33.20
2023-05-09T10:09:27.281Z,34.90
2023-05-09T10:11:56.717Z,34.40
2023-05-09T10:14:25.761Z,36.20
2023-05-09T10:16:56.664Z,38.77
2023-05-09T10:19:26.464Z,38.77
2023-05-09T10:21:57.241Z,41.53
2023-05-09T10:24:29.967Z,42.67
2023-05-09T10:27:01.667Z,45.37
2023-05-09T10:29:31.929Z,44.23
2023-05-09T10:32:02.626Z,46.87
2023-05-09T10:34:33.003Z,44.97
2023-05-09T10:37:02.646Z,45.77
2023-05-09T10:39:30.605Z,46.67
2023-05-09T10:41:59.811Z,50.37
2023-05-09T10:44:27.732Z,51.80
2023-05-09T10:46:55.702Z,51.80
2023-05-09T10:49:23.752Z,54.10
2023-05-09T10:51:52.238Z,56.80
2023-05-09T10:54:33.408Z,56.27
2023-05-09T10:57:01.168Z,55.33
2023-05-09T10:59:37.339Z,56.53
2023-05-09T11:02:05.902Z,54.90
2023-05-09T11:04:33.863Z,56.53
2023-05-09T11:07:01.913Z,55.47
2023-05-09T11:09:33.837Z,55.63
2023-05-09T11:12:12.844Z,54.60
2023-05-09T11:14:45.491Z,52.70
2023-05-09T11:17:14.467Z,55.67
2023-05-09T11:20:00.714Z,55.00
2023-05-09T11:22:30.642Z,52.77
2023-05-09T11:25:05.599Z,52.67
2023-05-09T11:27:39.900Z,52.90
2023-05-09T11:30:09.245Z,52.80
2023-05-09T11:32:43.227Z,51.73
2023-05-09T11:35:14.937Z,53.53
2023-05-09T11:37:47.987Z,53.70
2023-05-09T11:40:18.548Z,54.23
2023-05-09T11:42:47.423Z,55.00
2023-05-09T11:45:16.081Z,53.70
2023-05-09T11:47:44.237Z,50.83
2023-05-09T11:50:13.637Z,51.00
2023-05-09T11:52:41.888Z,50.53
2023-05-09T11:55:12.723Z,49.33
2023-05-09T11:57:44.284Z,50.00
2023-05-09T12:00:12.968Z,46.87
2023-05-09T12:02:40.687Z,50.27
2023-05-09T12:05:10.148Z,48.23
2023-05-09T12:07:39.550Z,49.77
2023-05-09T12:10:08.714Z,49.57
2023-05-09T12:12:36.698Z,49.40
2023-05-09T12:15:09.008Z,48.20
2023-05-09T12:17:36.956Z,47.57
2023-05-09T12:20:05.985Z,48.23
2023-05-09T12:22:34.094Z,48.33
2023-05-09T12:25:03.927Z,49.37
2023-05-09T12:27:33.062Z,49.20
2023-05-09T12:30:01.477Z,49.03
2023-05-09T12:32:32.940Z,48.47
2023-05-09T12:35:01.462Z,47.57
2023-05-09T12:37:32.532Z,47.37
2023-05-09T12:40:06.331Z,48.00
2023-05-09T12:42:34.396Z,46.77
2023-05-09T12:45:03.144Z,42.13
2023-05-09T12:47:32.995Z,42.40
2023-05-09T12:50:01.569Z,40.63
2023-05-09T12:52:35.354Z,40.93
2023-05-09T12:55:06.888Z,37.73
2023-05-09T12:57:34.618Z,36.93
2023-05-09T13:00:04.170Z,35.33
2023-05-09T13:02:37.071Z,24.57
2023-05-09T13:05:10.790Z,18.23
2023-05-09T13:07:42.133Z,18.13
2023-05-09T13:10:13.701Z,17.50
2023-05-09T13:12:44.627Z,17.67
2023-05-09T13:15:12.947Z,17.90
2023-05-09T13:17:42.245Z,18.70
2023-05-09T13:20:10.613Z,19.20
2023-05-09T13:22:38.631Z,18.90
2023-05-09T13:25:07.151Z,19.30
2023-05-09T13:27:35.774Z,19.30
2023-05-09T13:30:03.719Z,19.97
2023-05-09T13:32:31.636Z,18.73
2023-05-09T13:35:00.946Z,17.73
2023-05-09T13:37:28.680Z,18.60
2023-05-09T13:39:56.490Z,18.70
2023-05-09T13:42:24.108Z,17.17
2023-05-09T13:44:51.770Z,18.93
2023-05-09T13:47:19.437Z,18.43
2023-05-09T13:49:47.069Z,19.10
2023-05-09T13:52:16.897Z,18.07
2023-05-09T13:54:44.626Z,18.27
2023-05-09T13:57:12.701Z,17.40
2023-05-09T13:59:42.122Z,18.47
2023-05-09T14:02:10.893Z,18.50
2023-05-09T14:04:38.688Z,17.97
2023-05-09T14:07:06.710Z,17.73
2023-05-09T14:09:39.967Z,19.00
2023-05-09T14:12:08.156Z,19.03
2023-05-09T14:14:36.004Z,18.77
2023-05-09T14:17:04.450Z,16.77
2023-05-09T14:19:32.119Z,18.60
2023-05-09T14:21:59.773Z,18.07
2023-05-09T14:24:30.813Z,19.37
2023-05-09T14:26:59.901Z,18.67
2023-05-09T14:29:27.725Z,18.57
2023-05-09T14:31:55.756Z,18.57
2023-05-09T14:34:23.457Z,18.57
2023-05-09T14:36:51.284Z,18.87
2023-05-09T14:39:20.463Z,18.73
2023-05-09T14:41:50.023Z,19.77
2023-05-09T14:44:19.059Z,18.73
2023-05-09T14:46:46.788Z,18.20
2023-05-09T14:49:14.538Z,19.87
2023-05-09T14:51:42.263Z,18.37
2023-05-09T14:54:09.923Z,19.90
2023-05-09T14:56:37.938Z,18.97
2023-05-09T14:59:05.647Z,18.50
2023-05-09T15:01:34.760Z,17.80
2023-05-09T15:04:02.551Z,18.57
2023-05-09T15:06:30.466Z,19.27
2023-05-09T15:08:58.166Z,20.27
2023-05-09T15:11:28.645Z,19.47
2023-05-09T15:13:58.497Z,18.13
2023-05-09T15:16:26.561Z,16.50
2023-05-09T15:18:56.449Z,16.33
2023-05-09T15:21:24.147Z,15.93
2023-05-09T15:23:51.780Z,15.30
2023-05-09T15:26:19.556Z,15.63
2023-05-09T15:28:47.280Z,15.33
2023-05-09T15:31:15.341Z,15.13
2023-05-09T15:33:43.205Z,16.00
2023-05-09T15:36:12.660Z,15.63
2023-05-09T15:38:40.328Z,16.07
2023-05-09T15:41:08.981Z,15.80
2023-05-09T15:43:36.702Z,14.90
2023-05-09T15:46:04.362Z,15.57
2023-05-09T15:48:32.123Z,15.57
2023-05-09T15:50:59.768Z,14.10
2023-05-09T15:53:28.834Z,15.17
2023-05-09T15:55:56.852Z,15.27
2023-05-09T15:58:24.555Z,13.20
2023-05-09T16:00:52.401Z,11.90
2023-05-09T16:03:20.239Z,11.93
2023-05-09T16:05:48.276Z,10.40
2023-05-09T16:08:16.020Z,9.97
2023-05-09T16:10:48.785Z,8.37
2023-05-09T16:13:17.752Z,8.93
2023-05-09T16:15:47.824Z,7.70
2023-05-09T16:18:15.604Z,8.07
2023-05-09T16:20:44.034Z,6.87
2023-05-09T16:23:11.880Z,6.80
2023-05-09T16:25:39.736Z,6.40
2023-05-09T16:28:08.882Z,6.87
2023-05-09T16:30:36.575Z,7.37
2023-05-09T16:33:04.270Z,7.10
2023-05-09T16:35:32.028Z,7.50
2023-05-09T16:37:59.772Z,6.60
2023-05-09T16:40:27.543Z,6.73
2023-05-09T16:42:55.213Z,6.57
2023-05-09T16:45:24.295Z,6.67
2023-05-09T16:47:53.256Z,5.33
2023-05-09T16:50:21.135Z,5.70
2023-05-09T16:52:49.083Z,5.37
2023-05-09T16:55:17.046Z,5.17
2023-05-09T16:57:44.787Z,3.77
2023-05-09T17:00:13.551Z,3.90
2023-05-09T17:02:42.730Z,3.20
2023-05-09T17:05:10.869Z,3.80
2023-05-09T17:07:38.756Z,2.97
2023-05-09T17:10:07.307Z,3.30
2023-05-09T17:12:35.190Z,3.53
2023-05-09T17:15:02.908Z,3.20
2023-05-09T17:17:30.809Z,3.43
2023-05-09T17:20:01.015Z,3.50
2023-05-09T17:22:28.898Z,3.53
2023-05-09T17:24:56.622Z,3.60
2023-05-09T17:27:24.345Z,4.00
2023-05-09T17:29:52.057Z,4.13
2023-05-09T17:32:19.753Z,3.97
2023-05-09T17:34:47.452Z,4.30
2023-05-09T17:37:17.217Z,4.13
2023-05-09T17:39:45.014Z,4.47
2023-05-09T17:42:12.912Z,4.30
2023-05-09T17:44:43.031Z,4.20
2023-05-09T17:47:12.560Z,4.90
2023-05-09T17:49:40.587Z,4.37
2023-05-09T17:52:08.250Z,3.60
2023-05-09T17:54:37.611Z,4.47
2023-05-09T17:57:05.305Z,3.57
2023-05-09T17:59:33.140Z,3.80
2023-05-09T18:02:00.891Z,3.73
2023-05-09T18:04:30.697Z,4.10
2023-05-09T18:06:58.382Z,3.83
2023-05-09T18:09:26.454Z,4.37
2023-05-09T18:11:55.477Z,4.70
2023-05-09T18:14:23.201Z,4.00
2023-05-09T18:16:50.928Z,4.20
2023-05-09T18:19:18.691Z,4.30
2023-05-09T18:21:46.437Z,4.57
2023-05-09T18:24:16.314Z,4.73
2023-05-09T18:26:44.711Z,4.20
2023-05-09T18:29:13.804Z,4.77
2023-05-09T18:31:41.770Z,4.57
2023-05-09T18:34:09.922Z,4.43
2023-05-09T18:36:37.674Z,4.20
2023-05-09T18:39:05.514Z,4.67
2023-05-09T18:41:34.198Z,4.43
2023-05-09T18:44:01.976Z,3.90
2023-05-09T18:46:33.585Z,4.30
2023-05-09T18:49:03.006Z,4.40
2023-05-09T18:51:31.175Z,4.37
2023-05-09T18:53:58.851Z,5.00
2023-05-09T18:56:26.511Z,4.53
2023-05-09T18:58:54.206Z,4.90
2023-05-09T19:01:24.285Z,5.23
2023-05-09T19:03:55.156Z,5.37
2023-05-09T19:06:24.059Z,5.63
2023-05-09T19:08:52.103Z,5.63
2023-05-09T19:11:19.771Z,5.90
2023-05-09T19:13:49.375Z,6.10
2023-05-09T19:16:19.546Z,6.03
2023-05-09T19:18:47.293Z,5.43
2023-05-09T19:21:18.661Z,6.40
2023-05-09T19:23:47.725Z,6.53
2023-05-09T19:26:15.998Z,6.57
2023-05-09T19:28:43.815Z,6.40
2023-05-09T19:31:11.619Z,6.47
2023-05-09T19:33:39.596Z,6.43
2023-05-09T19:36:07.881Z,6.33
2023-05-09T19:38:37.052Z,6.50
2023-05-09T19:41:04.837Z,7.30
2023-05-09T19:43:32.576Z,7.20
2023-05-09T19:46:00.866Z,7.27
2023-05-09T19:48:28.658Z,6.97
2023-05-09T19:50:57.826Z,7.87
2023-05-09T19:53:25.830Z,7.10
2023-05-09T19:55:54.857Z,8.93
2023-05-09T19:58:22.562Z,7.83
2023-05-09T20:00:50.238Z,7.43
2023-05-09T20:03:18.153Z,6.77
2023-05-09T20:05:45.958Z,6.87
2023-05-09T20:08:16.063Z,7.27
2023-05-09T20:10:43.739Z,7.33
2023-05-09T20:13:13.954Z,22.20
2023-05-09T20:15:41.662Z,10.53
2023-05-09T20:18:09.323Z,8.87
2023-05-09T20:20:37.263Z,8.20
2023-05-09T20:23:04.994Z,8.33
2023-05-09T20:25:33.088Z,7.97
2023-05-09T20:28:00.753Z,8.37
2023-05-09T20:30:29.802Z,8.13
2023-05-09T20:32:58.591Z,8.83
2023-05-09T20:35:26.407Z,9.10
2023-05-09T20:37:54.061Z,8.33
2023-05-09T20:40:21.851Z,9.07
2023-05-09T20:42:49.514Z,9.17
2023-05-09T20:45:17.732Z,9.47
2023-05-09T20:47:46.874Z,9.97
2023-05-09T20:50:14.799Z,9.23
2023-05-09T20:52:42.688Z,9.30
2023-05-09T20:55:10.804Z,9.60
2023-05-09T20:57:38.458Z,9.40
2023-05-09T21:00:07.553Z,10.10
2023-05-09T21:02:35.388Z,10.37
2023-05-09T21:05:04.801Z,10.57
2023-05-09T21:07:32.488Z,11.23
2023-05-09T21:10:00.212Z,10.73
2023-05-09T21:12:27.911Z,10.03
2023-05-09T21:14:56.337Z,10.10
2023-05-09T21:17:24.087Z,10.80
2023-05-09T21:19:52.252Z,10.40
2023-05-09T21:22:21.287Z,10.80
2023-05-09T21:24:49.117Z,11.23
2023-05-09T21:27:16.794Z,10.67
2023-05-09T21:29:44.441Z,11.17
2023-05-09T21:32:12.108Z,11.13
2023-05-09T21:34:39.746Z,11.10
2023-05-09T21:37:07.426Z,11.57
2023-05-09T21:39:36.424Z,11.00
2023-05-09T21:42:04.203Z,11.37
2023-05-09T21:44:31.914Z,10.97
2023-05-09T21:46:59.887Z,11.63
2023-05-09T21:49:28.355Z,10.87
2023-05-09T21:51:56.127Z,11.77
2023-05-09T21:54:23.851Z,11.90
2023-05-09T21:56:52.875Z,12.17
2023-05-09T21:59:22.238Z,10.60
2023-05-09T22:01:50.120Z,12.17
2023-05-09T22:04:17.776Z,12.37
2023-05-09T22:06:45.480Z,11.30
2023-05-09T22:09:13.135Z,12.30
2023-05-09T22:11:40.847Z,11.43
2023-05-09T22:14:10.321Z,12.63
2023-05-09T22:16:38.394Z,12.17
2023-05-09T22:19:06.128Z,12.07
2023-05-09T22:21:33.775Z,12.33
2023-05-09T22:24:01.477Z,12.77
2023-05-09T22:26:29.156Z,11.67
2023-05-09T22:28:56.811Z,12.30
2023-05-09T22:31:25.895Z,12.00
2023-05-09T22:33:53.584Z,12.77
2023-05-09T22:36:21.749Z,12.30
2023-05-09T22:38:49.403Z,11.23
2023-05-09T22:41:17.228Z,11.70
2023-05-09T22:43:44.992Z,12.87
2023-05-09T22:46:12.793Z,11.80
2023-05-09T22:48:41.917Z,12.77
2023-05-09T22:51:09.947Z,13.07
2023-05-09T22:53:37.961Z,12.60
2023-05-09T22:56:07.528Z,12.77
2023-05-09T22:58:35.271Z,12.37
2023-05-09T23:01:03.101Z,12.77
2023-05-09T23:03:30.890Z,13.50
2023-05-09T23:05:59.947Z,12.37
2023-05-09T23:08:27.636Z,13.07
2023-05-09T23:10:55.324Z,12.60
2023-05-09T23:13:23.551Z,13.53
2023-05-09T23:15:51.969Z,14.17
2023-05-09T23:18:21.006Z,12.60
2023-05-09T23:20:48.708Z,13.00
2023-05-09T23:23:17.780Z,12.93
2023-05-09T23:25:45.558Z,13.57
2023-05-09T23:28:13.584Z,12.40
2023-05-09T23:30:41.315Z,10.90
2023-05-09T23:33:08.983Z,10.43
2023-05-09T23:35:36.623Z,9.97
2023-05-09T23:38:04.675Z,10.57
2023-05-09T23:40:33.731Z,11.33
2023-05-09T23:43:01.389Z,12.53
2023-05-09T23:45:29.436Z,12.43
2023-05-09T23:47:58.143Z,10.73
2023-05-09T23:50:25.849Z,10.33
2023-05-09T23:52:53.557Z,11.20
2023-05-09T23:55:21.359Z,10.80
2023-05-09T23:57:50.411Z,13.30
